createdAt,value
2022-09-12T00:01:31.391Z,55.35
2022-09-12T00:04:02.405Z,54.96
2022-09-12T00:06:33.233Z,56.14
2022-09-12T00:09:05.931Z,56.10
2022-09-12T00:11:36.916Z,55.76
2022-09-12T00:14:08.748Z,56.09
2022-09-12T00:16:37.867Z,56.81
2022-09-12T00:19:08.104Z,55.61
2022-09-12T00:21:38.685Z,56.02
2022-09-12T00:24:09.696Z,56.60
2022-09-12T00:26:38.507Z,56.16
2022-09-12T00:29:07.014Z,56.29
2022-09-12T00:31:35.700Z,56.50
2022-09-12T00:34:04.204Z,56.33
2022-09-12T00:36:32.717Z,57.01
2022-09-12T00:39:01.858Z,56.68
2022-09-12T00:41:33.804Z,56.54
2022-09-12T00:44:05.742Z,56.70
2022-09-12T00:46:40.200Z,58.41
2022-09-12T00:49:14.182Z,57.21
2022-09-12T00:51:46.869Z,57.87
2022-09-12T00:54:28.330Z,57.89
2022-09-12T00:57:10.645Z,59.19
2022-09-12T00:59:43.298Z,57.93
2022-09-12T01:02:12.617Z,59.17
2022-09-12T01:04:43.810Z,57.71
2022-09-12T01:07:15.393Z,57.28
2022-09-12T01:09:46.103Z,56.91
2022-09-12T01:12:16.745Z,57.26
2022-09-12T01:14:45.380Z,57.07
2022-09-12T01:17:16.827Z,57.05
2022-09-12T01:20:17.216Z,56.97
2022-09-12T01:23:21.755Z,57.13
2022-09-12T01:26:04.936Z,56.84
2022-09-12T01:28:57.608Z,57.14
2022-09-12T01:31:35.596Z,56.94
2022-09-12T01:34:15.037Z,57.25
2022-09-12T01:36:57.495Z,58.44
2022-09-12T01:39:34.853Z,58.95
2022-09-12T01:42:12.105Z,59.80
2022-09-12T01:44:52.401Z,59.87
2022-09-12T01:47:28.873Z,59.66
2022-09-12T01:50:03.669Z,60.95
2022-09-12T01:52:40.505Z,59.93
2022-09-12T01:55:13.873Z,59.94
2022-09-12T01:57:48.084Z,60.71
2022-09-12T02:00:17.369Z,61.30
2022-09-12T02:02:53.005Z,60.97
2022-09-12T02:05:29.692Z,63.03
2022-09-12T02:08:03.983Z,62.43
2022-09-12T02:10:38.108Z,61.63
2022-09-12T02:13:10.943Z,61.41
2022-09-12T02:15:44.305Z,64.27
2022-09-12T02:18:18.119Z,62.67
2022-09-12T02:20:49.567Z,62.73
2022-09-12T02:23:22.166Z,61.87
2022-09-12T02:25:55.210Z,62.14
2022-09-12T02:28:29.332Z,61.65
2022-09-12T02:31:14.147Z,61.61
2022-09-12T02:33:50.646Z,62.41
2022-09-12T02:36:31.810Z,62.70
2022-09-12T02:39:00.438Z,63.40
2022-09-12T02:41:29.334Z,63.18
2022-09-12T02:43:58.238Z,64.07
2022-09-12T02:46:34.227Z,64.96
2022-09-12T02:49:04.613Z,64.14
2022-09-12T02:51:33.032Z,64.21
2022-09-12T02:54:02.289Z,63.69
2022-09-12T02:56:32.372Z,63.69
2022-09-12T02:59:06.800Z,63.67
2022-09-12T03:01:51.744Z,63.06
2022-09-12T03:04:41.436Z,64.66
2022-09-12T03:07:17.838Z,64.03
2022-09-12T03:09:50.286Z,65.94
2022-09-12T03:12:35.047Z,68.58
2022-09-12T03:15:20.914Z,67.24
2022-09-12T03:18:05.676Z,66.50
2022-09-12T03:20:46.040Z,66.58
2022-09-12T03:23:25.501Z,65.27
2022-09-12T03:26:00.765Z,65.99
2022-09-12T03:28:30.667Z,66.04
2022-09-12T03:30:59.691Z,66.80
2022-09-12T03:33:28.307Z,67.09
2022-09-12T03:35:58.830Z,68.12
2022-09-12T03:38:27.596Z,68.28
2022-09-12T03:40:55.929Z,67.92
2022-09-12T03:43:24.811Z,67.43
2022-09-12T03:45:53.485Z,67.07
2022-09-12T03:48:22.153Z,66.80
2022-09-12T03:50:50.822Z,67.31
2022-09-12T03:53:20.462Z,66.54
2022-09-12T03:55:49.035Z,66.40
2022-09-12T03:58:17.633Z,66.43
2022-09-12T04:00:46.098Z,65.85
2022-09-12T04:03:14.538Z,65.84
2022-09-12T04:05:43.272Z,66.25
2022-09-12T04:08:11.601Z,65.07
2022-09-12T04:10:41.528Z,66.15
2022-09-12T04:13:10.213Z,64.87
2022-09-12T04:15:38.613Z,65.45
2022-09-12T04:18:07.121Z,64.68
2022-09-12T04:20:37.592Z,64.63
2022-09-12T04:23:06.386Z,64.15
2022-09-12T04:25:34.836Z,64.18
2022-09-12T04:28:04.883Z,63.79
2022-09-12T04:30:35.016Z,63.54
2022-09-12T04:33:07.920Z,64.01
2022-09-12T04:35:37.217Z,64.43
2022-09-12T04:38:05.735Z,65.98
2022-09-12T04:40:34.194Z,66.39
2022-09-12T04:43:04.322Z,65.34
2022-09-12T04:45:32.722Z,66.55
2022-09-12T04:48:01.481Z,65.29
2022-09-12T04:50:30.184Z,64.31
2022-09-12T04:52:58.973Z,64.48
2022-09-12T04:55:27.372Z,65.13
2022-09-12T04:57:55.955Z,63.95
2022-09-12T05:00:25.814Z,65.30
2022-09-12T05:02:54.268Z,64.93
2022-09-12T05:05:23.627Z,64.92
2022-09-12T05:07:52.412Z,64.03
2022-09-12T05:10:20.822Z,65.04
2022-09-12T05:12:49.423Z,64.41
2022-09-12T05:15:18.077Z,64.09
2022-09-12T05:17:48.012Z,64.01
2022-09-12T05:20:17.413Z,63.76
2022-09-12T05:22:45.763Z,63.58
2022-09-12T05:25:14.234Z,63.13
2022-09-12T05:27:44.016Z,64.11
2022-09-12T05:30:14.101Z,63.75
2022-09-12T05:32:42.838Z,63.67
2022-09-12T05:35:13.244Z,63.05
2022-09-12T05:37:41.692Z,62.30
2022-09-12T05:40:11.186Z,61.67
2022-09-12T05:42:40.152Z,61.41
2022-09-12T05:45:09.266Z,60.38
2022-09-12T05:47:37.723Z,60.51
2022-09-12T05:50:10.962Z,61.47
2022-09-12T05:52:40.900Z,60.82
2022-09-12T05:55:11.567Z,61.03
2022-09-12T05:57:40.420Z,59.92
2022-09-12T06:00:10.623Z,59.99
2022-09-12T06:02:42.595Z,60.02
2022-09-12T06:05:11.059Z,59.37
2022-09-12T06:07:40.832Z,60.39
2022-09-12T06:10:11.993Z,59.69
2022-09-12T06:12:40.439Z,59.49
2022-09-12T06:15:10.413Z,59.07
2022-09-12T06:17:39.001Z,58.35
2022-09-12T06:20:08.444Z,59.91
2022-09-12T06:22:36.881Z,58.76
2022-09-12T06:25:08.992Z,60.54
2022-09-12T06:27:37.392Z,59.42
2022-09-12T06:30:07.071Z,59.88
2022-09-12T06:32:36.229Z,59.73
2022-09-12T06:35:05.561Z,58.76
2022-09-12T06:37:34.076Z,58.68
2022-09-12T06:40:03.411Z,58.21
2022-09-12T06:42:34.241Z,57.06
2022-09-12T06:45:02.772Z,56.38
2022-09-12T06:47:32.093Z,60.00
2022-09-12T06:50:00.682Z,59.41
2022-09-12T06:52:29.524Z,59.11
2022-09-12T06:54:58.145Z,59.62
2022-09-12T06:57:30.107Z,61.16
2022-09-12T07:00:00.066Z,61.75
2022-09-12T07:02:28.546Z,60.60
2022-09-12T07:04:57.047Z,61.36
2022-09-12T07:07:25.981Z,61.78
2022-09-12T07:09:54.336Z,60.04
2022-09-12T07:12:22.751Z,60.26
2022-09-12T07:14:51.277Z,63.08
2022-09-12T07:17:21.151Z,61.92
2022-09-12T07:19:49.481Z,60.99
2022-09-12T07:22:18.009Z,59.24
2022-09-12T07:24:46.895Z,58.55
2022-09-12T07:27:15.412Z,58.73
2022-09-12T07:29:44.341Z,58.34
2022-09-12T07:32:12.677Z,59.22
2022-09-12T07:34:42.413Z,59.18
2022-09-12T07:37:11.387Z,60.25
2022-09-12T07:39:39.792Z,60.47
2022-09-12T07:42:08.458Z,61.20
2022-09-12T07:44:37.157Z,60.23
2022-09-12T07:47:05.677Z,61.83
2022-09-12T07:49:34.025Z,63.04
2022-09-12T07:52:04.913Z,62.72
2022-09-12T07:54:33.446Z,62.13
2022-09-12T07:57:01.859Z,60.77
2022-09-12T07:59:51.545Z,60.89
2022-09-12T08:02:19.214Z,60.37
2022-09-12T08:04:49.213Z,60.21
2022-09-12T08:07:19.511Z,60.06
2022-09-12T08:09:48.457Z,59.89
2022-09-12T08:12:17.803Z,59.20
2022-09-12T08:14:46.215Z,57.60
2022-09-12T08:17:14.595Z,58.21
2022-09-12T08:19:43.700Z,58.75
2022-09-12T08:22:12.464Z,58.56
2022-09-12T08:24:42.280Z,56.75
2022-09-12T08:27:11.083Z,56.86
2022-09-12T08:29:39.514Z,58.41
2022-09-12T08:32:08.124Z,57.23
2022-09-12T08:34:36.708Z,57.02
2022-09-12T08:37:05.600Z,57.08
2022-09-12T08:39:34.121Z,55.95
2022-09-12T08:42:06.132Z,55.30
2022-09-12T08:44:52.033Z,56.90
2022-09-12T08:47:26.800Z,57.05
2022-09-12T08:50:03.801Z,56.22
2022-09-12T08:52:40.680Z,54.42
2022-09-12T08:55:25.572Z,54.55
2022-09-12T08:57:55.797Z,54.41
2022-09-12T09:00:24.448Z,54.95
2022-09-12T09:03:14.615Z,56.31
2022-09-12T09:05:51.423Z,54.99
2022-09-12T09:08:38.782Z,55.19
2022-09-12T09:11:20.970Z,55.57
2022-09-12T09:14:19.073Z,53.87
2022-09-12T09:16:51.173Z,52.06
2022-09-12T09:19:24.145Z,52.56
2022-09-12T09:21:58.226Z,50.94
2022-09-12T09:24:34.133Z,51.70
2022-09-12T09:27:23.568Z,49.80
2022-09-12T09:29:57.919Z,49.08
2022-09-12T09:32:29.469Z,50.33
2022-09-12T09:34:57.856Z,50.99
2022-09-12T09:37:34.007Z,49.63
2022-09-12T09:40:17.178Z,48.68
2022-09-12T09:42:54.009Z,47.16
2022-09-12T09:45:29.244Z,47.26
2022-09-12T09:48:01.613Z,46.64
2022-09-12T09:50:30.576Z,48.18
2022-09-12T09:53:02.973Z,47.69
2022-09-12T09:55:39.443Z,47.19
2022-09-12T09:58:08.157Z,46.66
2022-09-12T10:00:39.656Z,45.68
2022-09-12T10:03:31.236Z,44.92
2022-09-12T10:06:02.417Z,44.87
2022-09-12T10:08:35.325Z,44.42
2022-09-12T10:11:08.517Z,44.73
2022-09-12T10:13:43.016Z,45.18
2022-09-12T10:16:22.627Z,45.24
2022-09-12T10:18:52.717Z,45.91
2022-09-12T10:21:29.662Z,45.41
2022-09-12T10:24:04.838Z,45.59
2022-09-12T10:26:37.067Z,45.21
2022-09-12T10:29:13.914Z,45.07
2022-09-12T10:31:51.116Z,44.73
2022-09-12T10:34:27.843Z,44.38
2022-09-12T10:37:03.951Z,45.94
2022-09-12T10:39:34.885Z,45.42
2022-09-12T10:42:05.506Z,45.43
2022-09-12T10:44:35.649Z,44.60
2022-09-12T10:47:24.387Z,44.99
2022-09-12T10:49:52.876Z,43.86
2022-09-12T10:52:24.576Z,44.20
2022-09-12T10:54:53.715Z,43.80
2022-09-12T10:57:37.229Z,44.60
2022-09-12T11:00:14.452Z,44.80
2022-09-12T11:02:53.373Z,44.96
2022-09-12T11:05:37.685Z,45.28
2022-09-12T11:08:18.871Z,44.78
2022-09-12T11:10:57.117Z,43.55
2022-09-12T11:13:42.894Z,41.91
2022-09-12T11:16:24.197Z,41.62
2022-09-12T11:19:14.153Z,42.21
2022-09-12T11:21:59.194Z,41.49
2022-09-12T11:24:46.703Z,41.72
2022-09-12T11:27:31.723Z,40.66
2022-09-12T11:30:03.089Z,40.17
2022-09-12T11:32:46.493Z,40.64
2022-09-12T11:35:24.758Z,41.32
2022-09-12T11:38:08.995Z,40.37
2022-09-12T11:40:45.239Z,40.35
2022-09-12T11:43:27.357Z,39.30
2022-09-12T11:46:00.489Z,39.33
2022-09-12T11:48:39.799Z,39.38
2022-09-12T11:51:19.370Z,39.38
2022-09-12T11:54:01.340Z,40.28
2022-09-12T11:56:30.046Z,40.25
2022-09-12T11:59:05.788Z,39.62
2022-09-12T12:01:45.053Z,38.86
2022-09-12T12:04:23.116Z,39.34
2022-09-12T12:07:03.134Z,39.58
2022-09-12T12:09:31.936Z,38.89
2022-09-12T12:12:06.619Z,39.01
2022-09-12T12:14:44.217Z,38.44
2022-09-12T12:17:17.659Z,38.63
2022-09-12T12:19:47.695Z,38.52
2022-09-12T12:22:21.486Z,37.91
2022-09-12T12:25:11.709Z,37.17
2022-09-12T12:27:55.510Z,36.75
2022-09-12T12:31:01.294Z,38.30
2022-09-12T12:34:05.967Z,38.57
2022-09-12T12:36:43.075Z,37.30
2022-09-12T12:39:46.049Z,36.57
2022-09-12T12:43:04.890Z,34.97
2022-09-12T12:46:02.985Z,34.97
2022-09-12T12:49:15.988Z,35.94
2022-09-12T12:51:57.679Z,36.50
2022-09-12T12:54:36.609Z,36.42
2022-09-12T12:57:20.896Z,37.10
2022-09-12T12:59:53.839Z,37.21
2022-09-12T13:02:30.354Z,37.38
2022-09-12T13:05:02.449Z,37.03
2022-09-12T13:07:35.005Z,37.11
2022-09-12T13:10:05.472Z,36.02
2022-09-12T13:12:37.587Z,36.18
2022-09-12T13:15:47.869Z,35.48
2022-09-12T13:18:23.227Z,35.68
2022-09-12T13:20:56.684Z,35.50
2022-09-12T13:23:27.680Z,35.30
2022-09-12T13:25:57.836Z,35.34
2022-09-12T13:28:28.409Z,33.64
2022-09-12T13:31:01.266Z,34.53
2022-09-12T13:33:39.060Z,34.79
2022-09-12T13:36:38.578Z,34.86
2022-09-12T13:39:16.694Z,34.54
2022-09-12T13:42:18.647Z,34.80
2022-09-12T13:44:52.314Z,35.49
2022-09-12T13:47:27.880Z,35.17
2022-09-12T13:49:59.364Z,35.39
2022-09-12T13:52:32.425Z,36.06
2022-09-12T13:55:03.339Z,36.15
2022-09-12T13:57:37.559Z,35.19
2022-09-12T14:00:12.612Z,35.54
2022-09-12T14:02:41.724Z,35.04
2022-09-12T14:05:20.140Z,34.39
2022-09-12T14:07:56.320Z,35.18
2022-09-12T14:10:31.907Z,35.12
2022-09-12T14:13:03.015Z,34.72
2022-09-12T14:15:34.494Z,34.79
2022-09-12T14:18:05.550Z,34.02
2022-09-12T14:20:38.620Z,33.62
2022-09-12T14:23:22.574Z,33.48
2022-09-12T14:25:52.163Z,33.85
2022-09-12T14:28:23.575Z,35.32
2022-09-12T14:31:02.114Z,36.04
2022-09-12T14:33:34.114Z,36.15
2022-09-12T14:36:13.358Z,35.46
2022-09-12T14:38:44.158Z,34.35
2022-09-12T14:41:21.583Z,34.37
2022-09-12T14:43:55.434Z,34.98
2022-09-12T14:46:28.527Z,34.80
2022-09-12T14:49:01.102Z,34.84
2022-09-12T14:51:36.101Z,35.16
2022-09-12T14:54:05.159Z,35.03
2022-09-12T14:56:42.859Z,34.93
2022-09-12T14:59:31.903Z,34.62
2022-09-12T15:02:21.854Z,34.78
2022-09-12T15:04:52.298Z,35.45
2022-09-12T15:07:32.584Z,35.67
2022-09-12T15:10:02.782Z,34.25
2022-09-12T15:12:31.789Z,35.37
2022-09-12T15:15:05.869Z,35.16
2022-09-12T15:17:34.434Z,35.52
2022-09-12T15:20:03.445Z,35.37
2022-09-12T15:22:34.045Z,34.48
2022-09-12T15:25:02.695Z,35.01
2022-09-12T15:27:31.039Z,35.57
2022-09-12T15:30:00.658Z,35.79
2022-09-12T15:32:31.410Z,36.45
2022-09-12T15:34:59.791Z,36.48
2022-09-12T15:37:28.348Z,36.25
2022-09-12T15:39:58.316Z,36.15
2022-09-12T15:42:31.409Z,36.82
2022-09-12T15:45:02.609Z,37.08
2022-09-12T15:47:31.645Z,36.98
2022-09-12T15:50:00.430Z,37.28
2022-09-12T15:52:28.943Z,37.22
2022-09-12T15:54:58.709Z,37.00
2022-09-12T15:57:27.357Z,37.15
2022-09-12T15:59:55.811Z,37.24
2022-09-12T16:02:24.294Z,37.27
2022-09-12T16:04:54.696Z,37.21
2022-09-12T16:07:23.068Z,37.28
2022-09-12T16:09:51.463Z,37.72
2022-09-12T16:12:21.802Z,38.04
2022-09-12T16:14:50.080Z,38.46
2022-09-12T16:17:18.527Z,38.88
2022-09-12T16:19:47.234Z,39.20
2022-09-12T16:22:15.696Z,38.53
2022-09-12T16:24:44.479Z,38.78
2022-09-12T16:27:13.237Z,39.01
2022-09-12T16:29:43.357Z,38.50
2022-09-12T16:32:12.003Z,38.59
2022-09-12T16:34:40.644Z,38.70
2022-09-12T16:37:09.491Z,38.13
2022-09-12T16:39:38.066Z,37.62
2022-09-12T16:42:07.111Z,39.97
2022-09-12T16:44:36.768Z,41.67
2022-09-12T16:47:06.827Z,42.46
2022-09-12T16:49:35.411Z,41.70
2022-09-12T16:52:05.177Z,42.18
2022-09-12T16:54:33.558Z,42.40
2022-09-12T16:57:02.676Z,41.53
2022-09-12T16:59:30.973Z,43.35
2022-09-12T17:01:59.403Z,43.11
2022-09-12T17:04:29.415Z,43.28
2022-09-12T17:06:59.439Z,44.66
2022-09-12T17:09:29.360Z,44.61
2022-09-12T17:11:58.859Z,44.10
2022-09-12T17:14:27.330Z,44.08
2022-09-12T17:16:55.781Z,43.81
2022-09-12T17:19:27.993Z,43.34
2022-09-12T17:21:58.702Z,43.27
2022-09-12T17:24:27.802Z,43.13
2022-09-12T17:26:57.097Z,43.55
2022-09-12T17:29:25.455Z,42.93
2022-09-12T17:31:55.040Z,42.88
2022-09-12T17:34:23.521Z,42.83
2022-09-12T17:36:52.012Z,43.02
2022-09-12T17:39:22.251Z,42.87
2022-09-12T17:41:51.867Z,43.01
2022-09-12T17:44:20.304Z,43.60
2022-09-12T17:46:49.204Z,45.25
2022-09-12T17:49:21.947Z,45.71
2022-09-12T17:51:52.102Z,46.94
2022-09-12T17:54:22.312Z,48.64
2022-09-12T17:56:51.599Z,49.16
2022-09-12T17:59:24.753Z,49.21
2022-09-12T18:02:10.539Z,50.96
2022-09-12T18:04:39.299Z,51.03
2022-09-12T18:07:08.655Z,50.43
2022-09-12T18:09:39.139Z,50.05
2022-09-12T18:12:08.709Z,50.66
2022-09-12T18:14:37.836Z,50.69
2022-09-12T18:17:08.628Z,50.35
2022-09-12T18:19:37.519Z,50.29
2022-09-12T18:22:07.089Z,50.45
2022-09-12T18:24:35.676Z,49.25
2022-09-12T18:27:07.533Z,49.23
2022-09-12T18:29:35.905Z,49.93
2022-09-12T18:32:04.289Z,50.03
2022-09-12T18:34:32.874Z,49.35
2022-09-12T18:37:05.123Z,48.75
2022-09-12T18:39:33.855Z,48.52
2022-09-12T18:42:02.157Z,48.14
2022-09-12T18:44:31.912Z,48.04
2022-09-12T18:47:01.839Z,48.38
2022-09-12T18:49:31.213Z,49.02
2022-09-12T18:51:59.559Z,49.49
2022-09-12T18:54:29.286Z,50.45
2022-09-12T18:56:57.748Z,51.22
2022-09-12T18:59:26.100Z,51.09
2022-09-12T19:01:56.132Z,51.74
2022-09-12T19:04:24.906Z,52.40
2022-09-12T19:06:53.284Z,51.96
2022-09-12T19:09:22.124Z,52.10
2022-09-12T19:11:52.598Z,52.71
2022-09-12T19:14:23.689Z,53.11
2022-09-12T19:16:53.218Z,53.41
2022-09-12T19:19:23.406Z,53.81
2022-09-12T19:21:51.984Z,53.81
2022-09-12T19:24:21.905Z,54.14
2022-09-12T19:26:51.088Z,53.60
2022-09-12T19:29:19.923Z,53.70
2022-09-12T19:31:48.771Z,52.84
2022-09-12T19:34:17.476Z,52.33
2022-09-12T19:36:47.629Z,51.55
2022-09-12T19:39:17.940Z,51.39
2022-09-12T19:41:47.243Z,52.54
2022-09-12T19:44:16.007Z,52.62
2022-09-12T19:46:46.781Z,52.43
2022-09-12T19:49:16.285Z,52.08
2022-09-12T19:51:45.070Z,51.65
2022-09-12T19:54:15.707Z,52.12
2022-09-12T19:56:47.598Z,52.33
2022-09-12T19:59:18.039Z,51.74
2022-09-12T20:01:47.083Z,50.62
2022-09-12T20:04:16.076Z,50.95
2022-09-12T20:06:45.318Z,50.19
2022-09-12T20:09:15.540Z,50.01
2022-09-12T20:11:44.117Z,49.43
2022-09-12T20:14:13.140Z,49.48
2022-09-12T20:16:41.832Z,49.22
2022-09-12T20:19:11.129Z,49.23
2022-09-12T20:21:40.116Z,49.14
2022-09-12T20:24:12.278Z,48.95
2022-09-12T20:26:42.933Z,48.71
2022-09-12T20:29:12.031Z,48.64
2022-09-12T20:31:42.630Z,48.66
2022-09-12T20:34:16.575Z,48.29
2022-09-12T20:36:45.322Z,48.38
2022-09-12T20:39:15.766Z,48.33
2022-09-12T20:41:46.413Z,48.35
2022-09-12T20:44:15.876Z,48.28
2022-09-12T20:46:44.547Z,48.47
2022-09-12T20:49:13.021Z,48.35
2022-09-12T20:51:41.622Z,48.46
2022-09-12T20:54:12.824Z,48.55
2022-09-12T20:56:42.046Z,48.44
2022-09-12T20:59:29.268Z,48.58
2022-09-12T21:01:57.960Z,48.58
2022-09-12T21:04:26.591Z,48.76
2022-09-12T21:06:55.352Z,48.62
2022-09-12T21:09:24.394Z,48.53
2022-09-12T21:11:52.819Z,48.63
2022-09-12T21:14:21.268Z,48.85
2022-09-12T21:16:52.029Z,49.01
2022-09-12T21:19:20.515Z,48.93
2022-09-12T21:21:48.938Z,48.85
2022-09-12T21:24:17.866Z,49.20
2022-09-12T21:26:46.375Z,49.06
2022-09-12T21:29:14.795Z,49.11
2022-09-12T21:32:05.992Z,49.27
2022-09-12T21:34:34.422Z,48.99
2022-09-12T21:37:03.126Z,49.08
2022-09-12T21:39:31.850Z,49.02
2022-09-12T21:42:00.388Z,48.92
2022-09-12T21:44:28.979Z,49.38
2022-09-12T21:46:58.295Z,49.67
2022-09-12T21:49:28.295Z,49.41
2022-09-12T21:51:57.064Z,49.64
2022-09-12T21:54:26.179Z,49.61
2022-09-12T21:56:55.238Z,49.76
2022-09-12T21:59:23.725Z,49.85
2022-09-12T22:01:52.512Z,49.92
2022-09-12T22:04:20.964Z,49.88
2022-09-12T22:06:50.727Z,49.85
2022-09-12T22:09:19.379Z,50.06
2022-09-12T22:11:47.960Z,49.81
2022-09-12T22:14:17.600Z,49.99
2022-09-12T22:16:46.265Z,50.20
2022-09-12T22:19:15.157Z,49.83
2022-09-12T22:22:03.470Z,50.23
2022-09-12T22:24:32.560Z,50.33
2022-09-12T22:27:04.627Z,50.40
2022-09-12T22:29:34.109Z,50.82
2022-09-12T22:32:02.835Z,50.63
2022-09-12T22:34:31.736Z,50.83
2022-09-12T22:37:01.286Z,50.93
2022-09-12T22:39:29.833Z,51.05
2022-09-12T22:41:59.846Z,51.09
2022-09-12T22:44:28.253Z,51.13
2022-09-12T22:46:56.975Z,51.35
2022-09-12T22:49:25.529Z,51.62
2022-09-12T22:51:54.252Z,51.54
2022-09-12T22:54:22.668Z,51.68
2022-09-12T22:56:51.265Z,51.94
2022-09-12T22:59:21.103Z,52.01
2022-09-12T23:01:49.840Z,52.20
2022-09-12T23:04:18.279Z,52.14
2022-09-12T23:06:46.958Z,52.20
2022-09-12T23:09:15.612Z,52.33
2022-09-12T23:11:44.280Z,52.37
2022-09-12T23:14:12.716Z,52.44
2022-09-12T23:16:42.771Z,52.51
2022-09-12T23:19:11.313Z,52.80
2022-09-12T23:21:39.713Z,52.74
2022-09-12T23:24:08.416Z,53.10
2022-09-12T23:26:37.017Z,52.95
2022-09-12T23:29:05.735Z,53.14
2022-09-12T23:31:35.793Z,53.54
2022-09-12T23:34:06.942Z,53.71
2022-09-12T23:36:36.392Z,53.90
2022-09-12T23:39:04.966Z,53.72
2022-09-12T23:41:33.420Z,53.97
2022-09-12T23:44:02.072Z,54.03
2022-09-12T23:46:30.432Z,54.13
2022-09-12T23:48:58.821Z,54.45
2022-09-12T23:51:28.855Z,54.35
2022-09-12T23:53:57.541Z,54.93
2022-09-12T23:56:26.087Z,54.91
2022-09-12T23:58:54.683Z,54.89
